Time;durP1;ratioP1;P1;durP2;ratioP2;P2;SDS_P1;SDS_P2;PMS_P1;PMS_P2;Temp;Humidity;BMP_temperature;BMP_pressure;BME280_temperature;BME280_humidity;BME280_pressure;Samples;Min_cycle;Max_cycle;Signal;HPM_P1;HPM_P2
2023/01/17 00:01:49;;;;;;;0.40;0.30;;;4.00;76.40;;;;;;5024232;28;20037;-60
2023/01/17 00:09:57;;;;;;;0.47;0.30;;;4.10;76.40;;;;;;5026457;28;20040;-60
2023/01/17 00:12:25;;;;;;;1.38;0.38;;;4.00;76.30;;;;;;5018624;28;20334;-59
2023/01/17 00:14:52;;;;;;;0.93;0.40;;;4.00;76.30;;;;;;5024444;28;20057;-59
2023/01/17 00:17:18;;;;;;;0.55;0.32;;;4.00;77.10;;;;;;5022607;28;20037;-60
2023/01/17 01:35:09;;;;;;;0.40;0.20;;;4.10;76.60;;;;;;5026144;28;20120;-59
2023/01/17 01:37:35;;;;;;;1.95;0.30;;;4.20;76.70;;;;;;5028085;28;20461;-60
2023/01/17 01:40:00;;;;;;;0.95;0.40;;;4.10;76.60;;;;;;5037568;28;20040;-59
2023/01/17 01:42:26;;;;;;;1.23;0.30;;;4.10;76.70;;;;;;5026824;28;20050;-59
2023/01/17 01:44:53;;;;;;;0.98;0.60;;;4.10;76.80;;;;;;5025788;28;20029;-58
2023/01/17 01:47:30;;;;;;;0.40;0.30;;;4.10;76.80;;;;;;5026192;28;20049;-60
2023/01/17 01:49:59;;;;;;;0.50;0.30;;;4.10;76.80;;;;;;5024534;28;20468;-60
2023/01/17 01:52:27;;;;;;;0.85;0.32;;;4.10;76.90;;;;;;5027657;28;20044;-59
2023/01/17 01:55:00;;;;;;;0.65;0.50;;;4.20;76.90;;;;;;5024291;28;20098;-59
2023/01/17 01:57:30;;;;;;;0.40;0.28;;;4.20;76.80;;;;;;5026496;28;20041;-59
2023/01/17 02:00:15;;;;;;;1.67;0.40;;;4.20;76.70;;;;;;5027122;28;20037;-60
2023/01/17 02:02:43;;;;;;;0.95;0.40;;;4.20;76.80;;;;;;5019799;28;20508;-58
2023/01/17 02:05:11;;;;;;;1.13;0.40;;;4.20;76.70;;;;;;5031190;28;20029;-58
2023/01/17 02:07:49;;;;;;;1.10;0.40;;;4.20;76.60;;;;;;5028474;28;20494;-59
2023/01/17 02:10:15;;;;;;;0.52;0.40;;;4.20;76.70;;;;;;5027908;28;20056;-59
2023/01/17 02:12:41;;;;;;;0.40;0.30;;;4.20;76.70;;;;;;5020282;28;20133;-59
2023/01/17 02:15:07;;;;;;;1.67;0.30;;;4.20;76.70;;;;;;5026806;28;20041;-60
2023/01/17 02:17:58;;;;;;;1.17;0.35;;;4.30;76.70;;;;;;5023502;28;20038;-59
2023/01/17 02:20:45;;;;;;;0.63;0.30;;;4.20;76.70;;;;;;5029981;28;20068;-60
2023/01/17 02:23:52;;;;;;;0.47;0.30;;;4.30;76.70;;;;;;5026408;28;20099;-58
2023/01/17 02:26:47;;;;;;;0.68;0.30;;;4.20;76.70;;;;;;5028730;28;20251;-59
2023/01/17 02:29:32;;;;;;;1.42;0.20;;;4.20;76.60;;;;;;5023847;28;20349;-60
2023/01/17 02:32:07;;;;;;;0.30;0.20;;;4.30;76.70;;;;;;5022337;28;20033;-59
2023/01/17 02:34:36;;;;;;;2.08;0.60;;;4.20;76.70;;;;;;5029083;28;20583;-57
2023/01/17 02:37:10;;;;;;;1.27;0.43;;;4.20;76.70;;;;;;5029730;28;20036;-60
2023/01/17 02:39:42;;;;;;;0.57;0.30;;;4.20;76.70;;;;;;5028738;28;20120;-60
2023/01/17 02:42:13;;;;;;;1.35;0.40;;;4.20;76.80;;;;;;5027473;28;20036;-60
2023/01/17 02:44:40;;;;;;;2.17;0.35;;;4.20;76.90;;;;;;5027716;28;20167;-58
2023/01/17 02:47:25;;;;;;;1.65;0.20;;;4.20;76.90;;;;;;5022930;28;20032;-59
2023/01/17 02:49:54;;;;;;;0.70;0.30;;;4.20;77.00;;;;;;5028968;28;20366;-59
2023/01/17 02:52:25;;;;;;;0.45;0.40;;;4.20;76.90;;;;;;5028385;28;20083;-58
2023/01/17 02:55:18;;;;;;;0.57;0.50;;;4.20;76.90;;;;;;5026860;28;20033;-60
2023/01/17 02:57:53;;;;;;;0.68;0.30;;;4.20;77.10;;;;;;5025305;28;20120;-59
2023/01/17 03:00:36;;;;;;;0.75;0.40;;;4.30;78.00;;;;;;5029674;28;20111;-59
2023/01/17 03:03:30;;;;;;;0.40;0.30;;;4.30;78.00;;;;;;5026772;28;20149;-59
2023/01/17 03:06:10;;;;;;;0.50;0.30;;;4.30;77.20;;;;;;5023673;28;20029;-60
2023/01/17 03:08:42;;;;;;;0.73;0.43;;;4.30;77.20;;;;;;5026727;28;20044;-60
2023/01/17 03:11:09;;;;;;;1.02;0.40;;;4.30;77.30;;;;;;5018280;28;20045;-59
2023/01/17 03:13:35;;;;;;;1.65;0.30;;;4.30;77.20;;;;;;5030131;28;20043;-59
2023/01/17 03:16:05;;;;;;;1.35;0.40;;;4.30;77.20;;;;;;5023628;28;20034;-58
2023/01/17 03:18:31;;;;;;;1.48;0.60;;;4.30;77.30;;;;;;5021621;28;20500;-59
2023/01/17 03:20:56;;;;;;;0.63;0.40;;;4.30;77.30;;;;;;5027933;28;20049;-61
2023/01/17 03:23:22;;;;;;;0.40;0.40;;;4.30;77.40;;;;;;5027257;28;20045;-60
2023/01/17 03:25:47;;;;;;;0.95;0.40;;;4.30;77.40;;;;;;5027468;28;20111;-60
2023/01/17 03:28:13;;;;;;;1.02;0.50;;;4.30;77.40;;;;;;5028144;28;20029;-58
2023/01/17 03:30:39;;;;;;;0.75;0.30;;;4.40;77.50;;;;;;5023603;28;20041;-59
2023/01/17 03:33:04;;;;;;;1.10;0.30;;;4.40;77.40;;;;;;5029551;28;20037;-60
2023/01/17 03:35:30;;;;;;;1.17;0.40;;;4.40;77.40;;;;;;5030279;28;20131;-61
2023/01/17 03:37:56;;;;;;;0.40;0.32;;;4.40;77.40;;;;;;5028288;28;20525;-58
2023/01/17 03:40:21;;;;;;;2.00;0.30;;;4.50;77.40;;;;;;5027460;28;20069;-59
2023/01/17 03:42:47;;;;;;;0.30;0.30;;;4.40;77.40;;;;;;5023778;28;20527;-61
2023/01/17 03:45:13;;;;;;;0.63;0.52;;;4.50;77.40;;;;;;5029943;28;20045;-59
2023/01/17 03:47:38;;;;;;;1.00;0.45;;;4.40;77.40;;;;;;5032576;28;20032;-60
2023/01/17 03:50:04;;;;;;;1.15;0.38;;;4.40;77.50;;;;;;5033098;28;20061;-60
2023/01/17 03:52:30;;;;;;;0.68;0.40;;;4.50;77.60;;;;;;5033639;28;20417;-60
2023/01/17 03:54:55;;;;;;;0.93;0.40;;;4.50;77.60;;;;;;5031383;28;20029;-61
2023/01/17 03:57:21;;;;;;;0.60;0.28;;;4.50;77.60;;;;;;5031814;28;20072;-61
2023/01/17 03:59:47;;;;;;;1.42;0.38;;;4.50;77.60;;;;;;5027956;28;20033;-59
2023/01/17 04:02:13;;;;;;;1.40;0.57;;;4.50;77.60;;;;;;5025044;28;20053;-59
2023/01/17 04:04:38;;;;;;;0.40;0.40;;;4.50;77.50;;;;;;5026025;28;20037;-59
2023/01/17 04:07:04;;;;;;;1.83;0.50;;;4.50;77.50;;;;;;5029609;28;20061;-60
2023/01/17 04:09:32;;;;;;;1.08;0.63;;;4.50;77.40;;;;;;5029699;28;20034;-60
2023/01/17 04:12:01;;;;;;;0.75;0.50;;;4.50;77.40;;;;;;5020233;28;20034;-59
2023/01/17 04:14:27;;;;;;;0.90;0.73;;;4.50;77.30;;;;;;5027410;28;20177;-61
2023/01/17 04:16:53;;;;;;;1.15;0.70;;;4.50;77.30;;;;;;5023935;28;20537;-59
2023/01/17 04:19:19;;;;;;;0.70;0.60;;;4.50;77.20;;;;;;5029284;28;20124;-59
2023/01/17 04:21:44;;;;;;;1.08;0.90;;;4.50;77.20;;;;;;5019034;28;20030;-58
2023/01/17 04:24:10;;;;;;;1.20;1.00;;;4.50;77.30;;;;;;5026149;28;20025;-60
2023/01/17 04:26:35;;;;;;;1.42;0.88;;;4.50;77.30;;;;;;5026068;28;20044;-58
2023/01/17 04:29:01;;;;;;;0.88;0.80;;;4.40;77.30;;;;;;5029580;28;20037;-59
2023/01/17 04:31:27;;;;;;;1.60;0.88;;;4.40;77.30;;;;;;5026348;28;20144;-58
2023/01/17 04:33:52;;;;;;;1.23;0.68;;;4.40;77.30;;;;;;5029334;28;20030;-58
2023/01/17 04:36:18;;;;;;;2.35;1.05;;;4.40;77.30;;;;;;5028059;28;20490;-59
2023/01/17 04:38:43;;;;;;;2.17;1.10;;;4.40;77.30;;;;;;5032291;28;20065;-60
2023/01/17 04:41:09;;;;;;;1.80;1.10;;;4.40;77.40;;;;;;5027358;28;20025;-61
2023/01/17 04:43:34;;;;;;;1.10;0.80;;;4.30;77.40;;;;;;5030436;28;20556;-60
2023/01/17 04:46:00;;;;;;;1.35;1.00;;;4.40;77.50;;;;;;5029462;28;20404;-61
2023/01/17 04:48:26;;;;;;;2.17;0.90;;;4.30;77.50;;;;;;5029035;28;20796;-61
2023/01/17 04:51:02;;;;;;;1.20;0.80;;;4.30;77.50;;;;;;5025765;28;20116;-60
2023/01/17 04:53:28;;;;;;;2.25;0.80;;;4.30;77.60;;;;;;5027164;28;20121;-59
2023/01/17 04:55:53;;;;;;;0.70;0.70;;;4.30;77.40;;;;;;5027747;28;20125;-59
2023/01/17 04:58:19;;;;;;;1.00;0.77;;;4.30;77.60;;;;;;5028946;28;20559;-60
2023/01/17 05:00:49;;;;;;;0.98;0.82;;;4.30;77.60;;;;;;5028466;28;20496;-61
2023/01/17 05:03:21;;;;;;;1.23;0.88;;;4.30;77.60;;;;;;5027875;28;20110;-59
2023/01/17 05:05:47;;;;;;;1.33;1.08;;;4.30;77.70;;;;;;5025405;28;20393;-60
2023/01/17 05:08:14;;;;;;;1.23;1.05;;;4.20;77.60;;;;;;5034016;28;20037;-56
2023/01/17 05:10:39;;;;;;;1.55;1.02;;;4.30;77.80;;;;;;5028543;28;20049;-59
2023/01/17 05:13:05;;;;;;;1.65;1.02;;;4.30;77.80;;;;;;5024002;28;20418;-59
2023/01/17 05:15:31;;;;;;;1.70;1.20;;;4.30;77.80;;;;;;5032076;28;20037;-60
2023/01/17 05:17:57;;;;;;;2.20;1.40;;;4.30;77.70;;;;;;5031422;28;20099;-61
2023/01/17 05:20:25;;;;;;;3.10;1.05;;;4.30;77.60;;;;;;5032666;28;20528;-61
2023/01/17 05:22:54;;;;;;;2.10;1.13;;;4.30;77.30;;;;;;5027151;28;20520;-61
2023/01/17 05:25:23;;;;;;;2.42;1.23;;;4.30;77.10;;;;;;5028078;28;20306;-61
2023/01/17 05:27:48;;;;;;;3.78;2.28;;;4.30;76.90;;;;;;5025726;28;20045;-59
2023/01/17 05:30:15;;;;;;;4.30;2.38;;;4.30;76.70;;;;;;5022951;28;20075;-61
2023/01/17 05:32:43;;;;;;;3.00;2.25;;;4.30;76.70;;;;;;5022773;28;20040;-59
2023/01/17 05:35:09;;;;;;;3.70;2.10;;;4.30;76.70;;;;;;5027167;28;20045;-61
2023/01/17 05:37:34;;;;;;;3.47;2.15;;;4.30;76.50;;;;;;5033988;28;20505;-61
2023/01/17 05:40:00;;;;;;;4.95;3.05;;;4.20;76.50;;;;;;5033237;28;20041;-61
2023/01/17 05:42:25;;;;;;;5.30;3.25;;;4.20;76.30;;;;;;5032584;28;20033;-60
2023/01/17 05:44:51;;;;;;;3.75;2.55;;;4.10;76.40;;;;;;5033250;28;20666;-59
2023/01/17 05:47:16;;;;;;;2.88;1.90;;;4.10;76.40;;;;;;5033959;28;20061;-59
2023/01/17 05:49:42;;;;;;;3.15;2.22;;;4.00;76.40;;;;;;5034906;28;20033;-60
2023/01/17 05:52:08;;;;;;;2.30;1.88;;;4.00;76.40;;;;;;5033770;28;20025;-59
2023/01/17 05:54:34;;;;;;;2.13;1.73;;;4.00;77.40;;;;;;5034788;28;20596;-60
2023/01/17 05:56:59;;;;;;;5.72;3.60;;;3.90;76.60;;;;;;5033449;28;20124;-59
2023/01/17 05:59:25;;;;;;;6.07;3.83;;;3.90;76.60;;;;;;5032722;28;20065;-59
2023/01/17 06:01:51;;;;;;;23.42;11.07;;;3.80;76.40;;;;;;5036638;28;20501;-59
2023/01/17 06:04:16;;;;;;;11.00;6.45;;;3.80;76.60;;;;;;5035337;28;20037;-60
2023/01/17 06:06:42;;;;;;;11.98;6.53;;;3.80;76.70;;;;;;5037217;28;20044;-60
2023/01/17 06:09:07;;;;;;;9.43;5.10;;;3.70;76.80;;;;;;5037560;28;20370;-59
2023/01/17 06:11:33;;;;;;;7.05;3.97;;;3.70;76.70;;;;;;5039140;28;20044;-59
2023/01/17 06:13:58;;;;;;;5.70;3.15;;;3.70;76.60;;;;;;5037802;28;20044;-59
2023/01/17 06:16:24;;;;;;;3.83;1.60;;;3.70;76.60;;;;;;5037856;28;20082;-60
2023/01/17 06:18:50;;;;;;;1.70;1.40;;;3.70;76.70;;;;;;5036643;28;20851;-61
2023/01/17 06:21:15;;;;;;;2.28;1.30;;;3.60;76.80;;;;;;5034416;28;20036;-59
2023/01/17 06:23:41;;;;;;;1.35;1.17;;;3.60;76.90;;;;;;5031750;28;20048;-60
2023/01/17 06:26:07;;;;;;;2.85;1.40;;;3.50;76.90;;;;;;5033779;28;20029;-57
2023/01/17 06:28:33;;;;;;;1.77;1.10;;;3.50;77.00;;;;;;5030692;28;20420;-60
2023/01/17 06:31:03;;;;;;;1.98;1.23;;;3.40;77.10;;;;;;5032495;28;20120;-59
2023/01/17 06:33:29;;;;;;;2.38;1.70;;;3.40;77.10;;;;;;5035170;28;20071;-59
2023/01/17 06:35:54;;;;;;;2.33;1.92;;;3.40;77.30;;;;;;5033996;28;20045;-59
2023/01/17 06:38:20;;;;;;;1.70;1.20;;;3.30;77.30;;;;;;5031633;28;20113;-60
2023/01/17 06:40:46;;;;;;;3.38;1.35;;;3.20;77.40;;;;;;5032659;28;20037;-61
2023/01/17 06:43:12;;;;;;;3.25;2.00;;;3.20;77.40;;;;;;5030532;28;20139;-60
2023/01/17 06:45:37;;;;;;;4.20;2.03;;;3.10;77.60;;;;;;5035254;28;20520;-59
2023/01/17 06:48:04;;;;;;;6.05;2.40;;;3.10;77.80;;;;;;5032788;28;20578;-59
2023/01/17 06:50:30;;;;;;;6.40;3.38;;;3.00;77.80;;;;;;5035082;28;20061;-58
2023/01/17 06:52:59;;;;;;;8.02;4.13;;;3.00;78.80;;;;;;5034624;28;20064;-60
2023/01/17 06:55:29;;;;;;;8.70;4.43;;;3.00;78.00;;;;;;5033899;28;20065;-60
2023/01/17 06:57:56;;;;;;;8.02;4.28;;;3.00;78.00;;;;;;5033826;28;20340;-59
2023/01/17 07:00:21;;;;;;;5.53;3.28;;;3.00;78.00;;;;;;5032536;28;20523;-59
2023/01/17 07:02:51;;;;;;;6.47;3.65;;;3.00;78.00;;;;;;5033392;28;20049;-60
2023/01/17 07:05:17;;;;;;;5.88;3.03;;;3.00;78.00;;;;;;5032118;28;20038;-60
2023/01/17 07:07:44;;;;;;;5.75;3.13;;;3.00;78.00;;;;;;5033916;28;20064;-59
2023/01/17 07:10:11;;;;;;;7.28;2.88;;;2.90;78.00;;;;;;5033489;28;20040;-59
2023/01/17 07:12:36;;;;;;;6.03;2.67;;;2.90;77.90;;;;;;5030961;28;20048;-60
2023/01/17 07:15:02;;;;;;;4.32;2.60;;;3.00;77.90;;;;;;5032816;28;20037;-61
2023/01/17 07:17:28;;;;;;;4.18;2.58;;;2.90;77.80;;;;;;5033832;28;20524;-61
2023/01/17 07:19:53;;;;;;;4.28;2.47;;;2.90;77.80;;;;;;5030128;28;20036;-61
2023/01/17 07:22:19;;;;;;;10.65;3.58;;;2.90;77.80;;;;;;5032763;28;20075;-60
2023/01/17 07:24:44;;;;;;;10.93;4.50;;;2.90;77.60;;;;;;5031127;28;20041;-60
2023/01/17 07:27:10;;;;;;;10.93;4.78;;;2.90;77.70;;;;;;5032082;28;20501;-61
2023/01/17 07:29:36;;;;;;;9.23;5.20;;;2.90;77.80;;;;;;5032649;28;20025;-61
2023/01/17 07:32:02;;;;;;;8.77;4.90;;;2.90;77.70;;;;;;5032375;28;20029;-61
2023/01/17 07:34:27;;;;;;;6.57;4.28;;;2.90;77.60;;;;;;5033669;28;20037;-60
2023/01/17 07:36:53;;;;;;;6.03;3.90;;;2.80;77.60;;;;;;5033875;28;20499;-60
2023/01/17 07:39:19;;;;;;;7.80;4.18;;;2.80;77.80;;;;;;5033232;28;20045;-61
2023/01/17 07:41:45;;;;;;;8.35;4.28;;;2.70;77.80;;;;;;5031762;28;20068;-61
2023/01/17 07:44:12;;;;;;;7.63;4.13;;;2.80;78.10;;;;;;5031747;28;20057;-60
2023/01/17 07:46:38;;;;;;;5.95;3.58;;;2.70;78.30;;;;;;5031569;28;20033;-61
2023/01/17 07:49:03;;;;;;;5.70;3.45;;;2.70;78.40;;;;;;5032201;28;20038;-61
2023/01/17 07:51:29;;;;;;;7.90;3.88;;;2.70;78.50;;;;;;5033359;28;20071;-61
2023/01/17 07:53:55;;;;;;;7.78;3.95;;;2.60;78.50;;;;;;5032285;28;20614;-61
2023/01/17 07:56:20;;;;;;;11.00;5.00;;;2.70;78.60;;;;;;5031937;28;20120;-60
2023/01/17 07:58:47;;;;;;;11.50;5.22;;;2.70;78.60;;;;;;5032469;28;20888;-60
2023/01/17 08:01:14;;;;;;;9.75;4.60;;;2.60;78.60;;;;;;5036077;28;20064;-61
2023/01/17 08:03:40;;;;;;;12.70;4.47;;;2.60;78.80;;;;;;5034334;28;20042;-61
2023/01/17 08:06:19;;;;;;;9.68;3.90;;;2.60;78.90;;;;;;5036239;28;20037;-59
2023/01/17 08:08:45;;;;;;;5.32;2.90;;;2.60;79.30;;;;;;5035642;28;20528;-59
2023/01/17 08:11:11;;;;;;;5.40;2.92;;;2.70;79.20;;;;;;5032495;28;20668;-61
2023/01/17 08:13:37;;;;;;;8.98;3.65;;;2.60;79.20;;;;;;5034898;28;20119;-57
2023/01/17 08:16:03;;;;;;;8.32;4.60;;;2.70;79.30;;;;;;5037086;28;20045;-59
2023/01/17 08:18:29;;;;;;;9.45;5.22;;;2.70;79.30;;;;;;5034274;28;20037;-60
2023/01/17 08:20:55;;;;;;;8.82;4.70;;;2.70;79.30;;;;;;5036953;28;20391;-58
2023/01/17 08:23:20;;;;;;;9.88;4.90;;;2.70;79.20;;;;;;5037332;28;20069;-58
2023/01/17 08:25:46;;;;;;;8.00;4.30;;;2.70;79.30;;;;;;5037164;28;20099;-59
2023/01/17 08:28:12;;;;;;;6.82;3.58;;;2.70;79.40;;;;;;5035898;28;20095;-59
2023/01/17 08:30:38;;;;;;;8.38;3.85;;;2.70;79.50;;;;;;5036063;28;20529;-59
2023/01/17 08:33:04;;;;;;;6.00;3.60;;;2.80;79.80;;;;;;5035801;28;20037;-60
2023/01/17 08:35:30;;;;;;;7.80;3.70;;;2.80;79.80;;;;;;5033561;28;20073;-60
2023/01/17 08:37:56;;;;;;;7.35;4.35;;;2.80;79.90;;;;;;5036819;28;20029;-60
2023/01/17 08:40:22;;;;;;;9.10;4.57;;;2.80;79.90;;;;;;5036998;28;20087;-59
2023/01/17 08:42:56;;;;;;;8.85;4.85;;;2.90;79.90;;;;;;5035476;28;20045;-58
2023/01/17 08:45:21;;;;;;;11.30;5.97;;;2.90;80.00;;;;;;5034572;28;20060;-59
2023/01/17 08:47:47;;;;;;;9.70;5.60;;;3.00;80.00;;;;;;5035076;28;20418;-58
2023/01/17 08:50:12;;;;;;;11.15;5.72;;;3.00;79.90;;;;;;5034175;28;20421;-59
2023/01/17 08:52:38;;;;;;;11.63;4.47;;;3.10;80.00;;;;;;5035061;28;20036;-58
2023/01/17 08:55:04;;;;;;;8.60;4.40;;;3.10;79.90;;;;;;5035079;28;20496;-59
2023/01/17 08:57:30;;;;;;;7.07;4.00;;;3.10;79.90;;;;;;5036571;28;20029;-58
2023/01/17 08:59:56;;;;;;;5.60;3.03;;;3.10;79.70;;;;;;5034458;28;20567;-58
2023/01/17 09:02:23;;;;;;;4.53;2.60;;;3.20;79.70;;;;;;5029468;28;20041;-60
2023/01/17 09:04:49;;;;;;;4.95;2.67;;;3.20;79.70;;;;;;5034377;28;20025;-58
2023/01/17 09:07:17;;;;;;;5.47;2.17;;;3.20;79.70;;;;;;5035949;28;20414;-57
2023/01/17 09:09:43;;;;;;;5.22;2.25;;;3.20;79.70;;;;;;5036881;28;20124;-59
2023/01/17 09:12:09;;;;;;;4.22;2.25;;;3.30;79.70;;;;;;5033454;28;20034;-59
2023/01/17 09:14:36;;;;;;;3.00;2.10;;;3.30;79.60;;;;;;5034320;28;20525;-59
2023/01/17 09:17:02;;;;;;;2.92;2.10;;;3.30;79.50;;;;;;5036318;28;20511;-59
2023/01/17 09:19:28;;;;;;;5.90;2.40;;;3.40;79.70;;;;;;5036727;28;20041;-60
2023/01/17 09:21:53;;;;;;;4.65;2.47;;;3.40;79.70;;;;;;5035025;28;20033;-61
2023/01/17 09:24:19;;;;;;;4.50;2.70;;;3.40;79.70;;;;;;5035258;28;20041;-60
2023/01/17 09:26:44;;;;;;;4.60;2.10;;;3.50;79.70;;;;;;5036576;28;20033;-61
2023/01/17 09:29:12;;;;;;;3.33;2.10;;;3.50;79.70;;;;;;5034357;28;20032;-60
2023/01/17 09:31:39;;;;;;;3.75;2.58;;;3.50;79.80;;;;;;5034826;28;20060;-59
2023/01/17 09:34:04;;;;;;;4.20;3.10;;;3.60;79.80;;;;;;5035673;28;20163;-60
2023/01/17 09:36:32;;;;;;;6.05;4.15;;;3.60;79.70;;;;;;5035436;28;20605;-60
2023/01/17 09:38:59;;;;;;;3.70;2.60;;;3.70;79.70;;;;;;5034330;28;20116;-61
2023/01/17 09:41:31;;;;;;;7.90;3.78;;;3.70;79.80;;;;;;5034935;28;20033;-61
2023/01/17 09:44:21;;;;;;;7.65;3.97;;;3.70;80.70;;;;;;5035015;28;20405;-61
2023/01/17 09:46:48;;;;;;;5.68;3.22;;;3.70;80.20;;;;;;5038266;28;20191;-60
2023/01/17 09:49:37;;;;;;;4.90;3.10;;;3.70;79.80;;;;;;5037857;28;20095;-60
2023/01/17 09:52:05;;;;;;;5.15;2.70;;;3.70;79.90;;;;;;5039309;28;20040;-60
2023/01/17 09:54:38;;;;;;;3.05;2.63;;;3.70;79.90;;;;;;5036511;28;20513;-61
2023/01/17 09:57:38;;;;;;;3.60;2.45;;;3.70;79.90;;;;;;5038929;28;20116;-60
2023/01/17 10:00:21;;;;;;;5.35;2.30;;;3.70;80.30;;;;;;5034969;28;20705;-61
2023/01/17 10:03:18;;;;;;;3.08;2.50;;;3.70;80.40;;;;;;5033252;28;20048;-60
2023/01/17 10:05:44;;;;;;;6.43;2.58;;;3.80;80.40;;;;;;5032760;28;20045;-60
2023/01/17 10:08:54;;;;;;;2.85;2.40;;;3.80;80.20;;;;;;5032656;28;20052;-59
2023/01/17 10:11:36;;;;;;;3.42;2.30;;;3.80;80.50;;;;;;5008061;28;20267;-61
2023/01/17 10:14:15;;;;;;;5.53;2.30;;;3.80;80.40;;;;;;5035237;28;20060;-61
2023/01/17 10:16:56;;;;;;;4.03;2.55;;;3.80;80.30;;;;;;5035458;28;20056;-59
2023/01/17 10:20:00;;;;;;;4.22;2.95;;;3.80;80.30;;;;;;5035193;28;20041;-59
2023/01/17 10:22:42;;;;;;;3.67;2.53;;;3.80;80.60;;;;;;5033221;28;20091;-60
2023/01/17 10:25:26;;;;;;;4.85;2.85;;;3.80;81.30;;;;;;5036328;28;20026;-58
2023/01/17 10:28:17;;;;;;;4.43;2.40;;;3.80;80.20;;;;;;5033862;28;20037;-58
2023/01/17 10:30:50;;;;;;;4.95;2.83;;;3.80;80.20;;;;;;5025060;28;20029;-59
2023/01/17 10:33:20;;;;;;;7.40;2.65;;;3.80;80.20;;;;;;5034858;28;20033;-58
2023/01/17 10:35:56;;;;;;;3.17;2.50;;;3.80;80.20;;;;;;5032864;28;20040;-60
2023/01/17 10:38:30;;;;;;;3.17;2.67;;;3.80;80.40;;;;;;5033749;28;20041;-58
2023/01/17 10:41:04;;;;;;;5.40;2.60;;;3.80;80.40;;;;;;5033847;28;20033;-59
2023/01/17 10:43:46;;;;;;;4.60;2.92;;;3.80;80.60;;;;;;5034560;28;20055;-58
2023/01/17 10:46:21;;;;;;;4.90;2.67;;;3.80;80.90;;;;;;5033738;28;20061;-59
2023/01/17 10:48:50;;;;;;;3.42;2.70;;;3.90;81.00;;;;;;5033420;28;20120;-59
2023/01/17 10:51:42;;;;;;;3.38;2.10;;;3.90;80.90;;;;;;5032749;28;20112;-60
2023/01/17 10:54:34;;;;;;;3.40;2.40;;;4.00;81.10;;;;;;5037246;28;20483;-60
2023/01/17 10:56:59;;;;;;;3.55;2.38;;;4.00;81.30;;;;;;5037080;28;20045;-59
2023/01/17 10:59:32;;;;;;;2.85;2.40;;;4.00;80.90;;;;;;5036558;28;20087;-60
2023/01/17 11:01:58;;;;;;;4.80;3.28;;;4.00;81.10;;;;;;5036876;28;20578;-59
2023/01/17 11:04:37;;;;;;;4.82;2.90;;;4.00;81.00;;;;;;5037791;28;20068;-60
2023/01/17 11:07:24;;;;;;;5.25;3.08;;;4.00;81.30;;;;;;5036188;28;20040;-59
2023/01/17 11:09:52;;;;;;;3.67;2.40;;;4.00;81.30;;;;;;5036935;28;20052;-60
2023/01/17 11:12:37;;;;;;;2.40;1.83;;;4.10;81.10;;;;;;5032763;28;20488;-60
2023/01/17 11:15:20;;;;;;;4.30;2.15;;;4.10;81.20;;;;;;5036638;28;20040;-61
2023/01/17 11:18:05;;;;;;;2.13;1.65;;;4.20;81.00;;;;;;5036303;28;20064;-61
2023/01/17 11:20:41;;;;;;;3.97;1.80;;;4.30;81.20;;;;;;5036441;28;20025;-60
2023/01/17 11:23:17;;;;;;;1.70;1.60;;;4.30;80.30;;;;;;5036018;28;20504;-60
2023/01/17 11:25:59;;;;;;;1.45;1.25;;;4.40;79.70;;;;;;5037171;28;20041;-59
2023/01/17 11:28:29;;;;;;;1.95;1.30;;;4.40;79.20;;;;;;5037014;28;20040;-61
2023/01/17 11:31:02;;;;;;;1.80;1.35;;;4.50;79.20;;;;;;5035595;28;20037;-61
2023/01/17 11:33:46;;;;;;;1.50;1.10;;;4.50;78.60;;;;;;5037011;28;20048;-61
2023/01/17 11:36:21;;;;;;;5.78;1.33;;;4.50;78.10;;;;;;5036108;28;20113;-59
2023/01/17 11:38:58;;;;;;;1.52;1.20;;;4.50;78.10;;;;;;5035490;28;20485;-58
2023/01/17 11:41:26;;;;;;;1.95;1.27;;;4.60;78.70;;;;;;5036530;28;20244;-60
2023/01/17 11:43:58;;;;;;;2.10;1.77;;;4.60;78.00;;;;;;5037115;28;20152;-58
2023/01/17 11:46:27;;;;;;;4.10;1.42;;;4.70;77.80;;;;;;5036662;28;20044;-60
2023/01/17 11:48:55;;;;;;;5.75;1.50;;;4.70;77.60;;;;;;5034541;28;20504;-61
2023/01/17 11:51:40;;;;;;;2.97;1.50;;;4.80;77.50;;;;;;5037163;28;20034;-59
2023/01/17 11:54:27;;;;;;;2.80;1.20;;;4.80;76.90;;;;;;5036610;28;20064;-59
2023/01/17 11:56:58;;;;;;;1.38;1.20;;;4.80;76.70;;;;;;5036609;28;20064;-61
2023/01/17 11:59:33;;;;;;;2.47;1.13;;;4.90;76.80;;;;;;5030580;28;20037;-61
2023/01/17 12:02:23;;;;;;;1.67;1.15;;;4.90;76.70;;;;;;5033916;28;20088;-59
2023/01/17 12:05:17;;;;;;;1.80;0.93;;;5.00;76.40;;;;;;5030427;28;20037;-61
2023/01/17 12:08:08;;;;;;;2.65;0.90;;;5.00;76.00;;;;;;5033555;28;20025;-61
2023/01/17 12:10:57;;;;;;;2.10;0.90;;;5.00;75.90;;;;;;5029977;28;20119;-59
2023/01/17 12:16:46;;;;;;;1.63;0.88;;;5.10;75.30;;;;;;5033107;28;20064;-61
2023/01/17 12:19:31;;;;;;;1.13;0.70;;;5.10;75.20;;;;;;5033899;28;20030;-60
2023/01/17 12:21:57;;;;;;;1.45;0.90;;;5.10;74.30;;;;;;5028464;28;20044;-59
2023/01/17 12:24:49;;;;;;;1.20;0.90;;;5.10;74.90;;;;;;5031140;28;20050;-60
2023/01/17 12:27:33;;;;;;;3.80;0.90;;;5.20;74.00;;;;;;5032674;28;20065;-61
2023/01/17 12:30:15;;;;;;;1.57;0.90;;;5.20;74.10;;;;;;5031050;28;20037;-58
2023/01/17 12:33:07;;;;;;;2.00;1.10;;;5.20;74.30;;;;;;5031275;28;20037;-59
2023/01/17 12:35:37;;;;;;;2.03;1.02;;;5.20;73.80;;;;;;5032964;28;20029;-59
2023/01/17 12:38:09;;;;;;;3.13;1.08;;;5.20;74.40;;;;;;5030744;28;20037;-61
2023/01/17 12:40:38;;;;;;;1.65;1.00;;;5.20;74.00;;;;;;5033888;28;20030;-60
2023/01/17 12:43:34;;;;;;;2.15;1.15;;;5.20;74.00;;;;;;5034193;28;20420;-57
2023/01/17 12:46:15;;;;;;;2.13;1.20;;;5.20;73.50;;;;;;5034773;28;20030;-61
2023/01/17 12:48:42;;;;;;;1.70;1.20;;;5.30;74.10;;;;;;5035799;28;20128;-59
2023/01/17 12:51:45;;;;;;;1.90;1.30;;;5.30;74.10;;;;;;5038901;28;20038;-60
2023/01/17 12:54:24;;;;;;;3.97;1.33;;;5.30;73.60;;;;;;5035376;28;20039;-57
2023/01/17 12:57:02;;;;;;;3.72;1.40;;;5.30;73.90;;;;;;5038824;28;20386;-59
2023/01/17 13:00:00;;;;;;;2.80;1.90;;;5.30;73.30;;;;;;5039332;28;20121;-60
2023/01/17 13:02:43;;;;;;;5.30;1.92;;;5.40;72.90;;;;;;5039404;28;20095;-60
2023/01/17 13:05:26;;;;;;;1.98;1.38;;;5.40;73.30;;;;;;5039886;28;20108;-59
2023/01/17 13:07:59;;;;;;;2.15;1.30;;;5.40;72.90;;;;;;5039639;28;20112;-58
2023/01/17 13:10:31;;;;;;;1.88;1.20;;;5.40;72.90;;;;;;5038397;28;20033;-59
2023/01/17 13:13:02;;;;;;;1.75;1.20;;;5.40;73.90;;;;;;5039038;28;20051;-58
2023/01/17 13:15:38;;;;;;;1.73;0.98;;;5.40;73.10;;;;;;5039603;28;20040;-59
2023/01/17 13:18:16;;;;;;;2.97;1.02;;;5.40;73.00;;;;;;5039018;28;20041;-60
2023/01/17 13:21:04;;;;;;;2.50;1.10;;;5.40;72.60;;;;;;5038574;28;20029;-58
2023/01/17 13:24:06;;;;;;;2.00;1.00;;;5.40;72.60;;;;;;5039785;28;20037;-60
2023/01/17 13:26:54;;;;;;;1.40;0.80;;;5.50;73.30;;;;;;5038607;28;20501;-60
2023/01/17 13:29:42;;;;;;;2.65;1.00;;;5.50;72.40;;;;;;5038724;28;20124;-58
2023/01/17 13:32:44;;;;;;;1.15;0.90;;;5.40;72.40;;;;;;5036606;28;20037;-59
2023/01/17 13:35:25;;;;;;;2.05;1.20;;;5.50;72.20;;;;;;5037715;28;20488;-59
2023/01/17 13:38:00;;;;;;;1.33;1.10;;;5.50;72.70;;;;;;5038913;28;20048;-60
2023/01/17 13:40:50;;;;;;;4.13;1.10;;;5.40;72.60;;;;;;5038477;28;20035;-56
2023/01/17 13:43:25;;;;;;;1.33;0.93;;;5.40;72.00;;;;;;5038968;28;20093;-59
2023/01/17 13:45:58;;;;;;;;;;;5.40;72.40;;;;;;5039309;28;20409;-60
2023/01/17 13:48:26;;;;;;;1.58;1.10;;;5.40;72.20;;;;;;5038800;28;19913;-60
2023/01/17 13:50:56;;;;;;;2.97;1.00;;;5.40;72.80;;;;;;5039026;28;20037;-59
2023/01/17 13:53:30;;;;;;;2.88;1.50;;;5.40;72.70;;;;;;5038342;28;20041;-60
2023/01/17 13:56:09;;;;;;;1.40;1.20;;;5.40;72.40;;;;;;5038843;28;20037;-60
2023/01/17 13:59:00;;;;;;;2.30;1.23;;;5.40;72.20;;;;;;5038500;28;20044;-59
2023/01/17 14:01:38;;;;;;;2.25;1.25;;;5.40;72.40;;;;;;5039015;28;20038;-60
2023/01/17 14:04:09;;;;;;;1.90;1.20;;;5.40;73.40;;;;;;5038511;28;20037;-60
2023/01/17 14:06:35;;;;;;;1.60;1.50;;;5.40;72.70;;;;;;5038392;28;20444;-59
2023/01/17 14:09:15;;;;;;;2.50;2.15;;;5.40;72.70;;;;;;5037283;28;20112;-59
2023/01/17 14:12:03;;;;;;;2.40;1.35;;;5.50;72.30;;;;;;5034710;28;20116;-60
2023/01/17 14:14:40;;;;;;;3.08;1.42;;;5.50;72.30;;;;;;5038091;28;20406;-60
2023/01/17 14:17:15;;;;;;;2.97;1.20;;;5.40;72.40;;;;;;5038182;28;20031;-60
2023/01/17 14:19:49;;;;;;;2.75;1.20;;;5.50;72.60;;;;;;5037842;28;20607;-59
2023/01/17 14:22:17;;;;;;;1.90;1.20;;;5.50;72.70;;;;;;5038136;28;20091;-59
2023/01/17 14:24:57;;;;;;;2.13;1.27;;;5.50;72.70;;;;;;5037181;28;20121;-59
2023/01/17 14:27:26;;;;;;;2.05;1.35;;;5.50;72.40;;;;;;5037042;28;20029;-59
2023/01/17 14:29:58;;;;;;;2.10;1.75;;;5.40;72.60;;;;;;5037649;28;20049;-59
2023/01/17 14:32:34;;;;;;;2.25;1.40;;;5.50;72.60;;;;;;5033616;28;20087;-60
2023/01/17 14:35:00;;;;;;;2.00;1.60;;;5.50;72.60;;;;;;5034765;28;20040;-59
2023/01/17 14:37:31;;;;;;;3.95;2.67;;;5.40;72.60;;;;;;5034849;28;20517;-59
2023/01/17 14:39:58;;;;;;;4.55;2.70;;;5.50;72.50;;;;;;5034415;28;20041;-58
2023/01/17 14:42:28;;;;;;;4.57;2.10;;;5.40;72.40;;;;;;5033501;28;20466;-58
2023/01/17 14:45:04;;;;;;;6.38;3.17;;;5.40;72.30;;;;;;5032864;28;20037;-60
2023/01/17 14:47:33;;;;;;;6.68;3.88;;;5.40;72.00;;;;;;5034159;28;20033;-60